KELK/ELK METAR and TAF weather

Enter ICAO airport designator
Station Type Date Time Source
KELK METAR 2021/05/14 04:35 UTC NOAA

KELK 140435Z AUTO 16006KT 10SM CLR 13/10 A3026 RMK AO2 T01330096


Station Type Date Time Source
KELK Decoded METAR 2021/05/14 04:35 UTC NOAA

Station name not available
May 14, 2021 - 12:35 AM EDT / 2021.05.14 0435 UTC
Wind: from the SSE (160 degrees) at 7 MPH (6 KT):0
Visibility: 10 mile(s):0
Sky conditions: clear
Temperature: 55.9 F (13.3 C)
Dew Point: 49.3 F (9.6 C)
Relative Humidity: 78%
Pressure (altimeter): 30.26 in. Hg (1024 hPa)
ob: KELK 140435Z AUTO 16006KT 10SM CLR 13/10 A3026 RMK AO2 T01330096
cycle: 4

Station Type Date Time Source
KELK TAF UTC NOAA

Error!

Example: see airport list